Time;durP1;ratioP1;P1;durP2;ratioP2;P2;SDS_P1;SDS_P2;PMS_P1;PMS_P2;Temp;Humidity;BMP_temperature;BMP_pressure;BME280_temperature;BME280_humidity;BME280_pressure;Samples;Min_cycle;Max_cycle;Signal;HPM_P1;HPM_P2
2023/06/08 00:02:13;;;;;;;1.20;1.00;;;;;;;16.89;100.00;97686.47;1700843;75;753187;-72
2023/06/08 00:04:44;;;;;;;1.90;0.80;;;;;;;16.83;100.00;97677.47;1711264;75;679437;-73
2023/06/08 00:07:16;;;;;;;1.10;1.00;;;;;;;16.81;100.00;97682.75;1701722;75;745710;-69
2023/06/08 00:09:50;;;;;;;0.60;0.60;;;;;;;16.74;100.00;97672.25;1709557;75;796229;-70
2023/06/08 00:12:21;;;;;;;1.00;0.90;;;;;;;16.67;100.00;97670.03;1701287;75;761651;-70
2023/06/08 00:14:51;;;;;;;1.60;1.50;;;;;;;16.52;100.00;97668.41;1709294;75;767188;-73
2023/06/08 00:17:23;;;;;;;1.50;1.20;;;;;;;16.61;100.00;97667.34;1701776;75;741106;-75
2023/06/08 00:19:56;;;;;;;1.55;1.40;;;;;;;16.56;100.00;97673.69;1710185;75;677786;-74
2023/06/08 00:22:26;;;;;;;1.35;1.20;;;;;;;16.55;100.00;97666.66;1701353;75;744937;-70
2023/06/08 00:24:59;;;;;;;1.20;1.10;;;;;;;16.55;100.00;97670.16;1707309;75;964812;-73
2023/06/08 00:27:30;;;;;;;1.70;1.60;;;;;;;16.29;100.00;97667.13;1701322;75;738097;-70
2023/06/08 00:30:00;;;;;;;1.50;1.40;;;;;;;16.22;100.00;97667.69;1710146;75;701800;-71
2023/06/08 00:32:31;;;;;;;7.70;1.80;;;;;;;16.20;100.00;97668.19;1702002;75;744744;-70
2023/06/08 00:35:01;;;;;;;3.80;2.10;;;;;;;16.26;100.00;97662.63;1711980;75;671208;-70
2023/06/08 00:37:31;;;;;;;1.45;1.35;;;;;;;16.24;100.00;97663.16;1701339;75;755427;-72
2023/06/08 00:40:04;;;;;;;2.45;1.00;;;;;;;16.21;100.00;97655.88;1710900;75;682028;-72
2023/06/08 00:42:35;;;;;;;2.10;1.40;;;;;;;16.13;100.00;97661.19;1689330;75;1753045;-72
2023/06/08 00:45:07;;;;;;;1.50;1.30;;;;;;;16.05;100.00;97660.25;1711374;75;670553;-72
2023/06/08 00:47:38;;;;;;;1.50;1.40;;;;;;;16.04;100.00;97646.97;1701589;75;744470;-70
2023/06/08 00:50:11;;;;;;;1.20;1.10;;;;;;;16.08;100.00;97650.19;1710347;75;717709;-70
2023/06/08 00:52:44;;;;;;;1.20;1.10;;;;;;;16.05;100.00;97649.22;1699737;75;855209;-71
2023/06/08 00:55:19;;;;;;;0.80;0.80;;;;;;;16.00;100.00;97641.72;1707648;75;892669;-72
2023/06/08 00:57:50;;;;;;;1.25;1.15;;;;;;;16.00;100.00;97636.22;1686656;75;1849748;-74
2023/06/08 01:00:20;;;;;;;0.80;0.80;;;;;;;15.98;100.00;97638.72;1710522;75;676474;-73
2023/06/08 01:02:51;;;;;;;0.85;0.85;;;;;;;15.92;100.00;97641.53;1701551;75;777463;-71
2023/06/08 01:05:22;;;;;;;1.30;1.00;;;;;;;15.88;100.00;97638.28;1709715;75;685284;-70
2023/06/08 01:08:08;;;;;;;1.15;0.95;;;;;;;15.81;100.00;97627.06;1700744;75;748218;-70
2023/06/08 01:10:45;;;;;;;;;;;;;;;15.80;100.00;97640.09;1633312;75;6482403;-72
2023/06/08 01:13:25;;;;;;;1.30;1.20;;;;;;;15.77;100.00;97636.34;1697168;75;1766567;-69
2023/06/08 01:16:05;;;;;;;1.10;0.90;;;;;;;15.76;100.00;97631.34;1700463;75;751082;-74
2023/06/08 01:18:41;;;;;;;0.85;0.85;;;;;;;15.71;100.00;97635.63;1690444;75;1697683;-70
2023/06/08 01:21:41;;;;;;;1.50;1.40;;;;;;;15.61;100.00;97631.66;1710641;75;673413;-75
2023/06/08 01:24:20;;;;;;;1.70;1.60;;;;;;;15.50;100.00;97626.19;1700622;75;742896;-71
2023/06/08 01:26:53;;;;;;;2.80;1.70;;;;;;;15.50;100.00;97626.19;1701470;75;681021;-71
2023/06/08 01:29:25;;;;;;;1.45;1.35;;;;;;;15.45;100.00;97624.97;1709288;75;677141;-71
2023/06/08 01:31:55;;;;;;;;;;;;;;;15.37;100.00;97621.25;1684046;75;1925908;-72
2023/06/08 01:34:25;;;;;;;1.70;1.60;;;;;;;15.32;100.00;97619.25;1710262;75;676582;-72
2023/06/08 01:37:10;;;;;;;2.30;1.60;;;;;;;15.34;100.00;97611.22;1701911;75;674879;-72
2023/06/08 01:40:06;;;;;;;1.40;1.30;;;;;;;15.27;100.00;97603.47;1709729;75;675066;-71
2023/06/08 01:42:37;;;;;;;4.50;1.80;;;;;;;15.01;100.00;97601.09;1698881;75;909116;-70
2023/06/08 01:45:15;;;;;;;1.80;1.60;;;;;;;15.19;100.00;97603.28;1709820;75;677092;-75
2023/06/08 01:47:50;;;;;;;1.70;1.60;;;;;;;15.10;100.00;97603.56;1700749;75;757366;-71
2023/06/08 01:50:22;;;;;;;1.30;1.20;;;;;;;15.15;100.00;97597.28;1701953;75;689391;-74
2023/06/08 01:52:53;;;;;;;1.40;1.30;;;;;;;15.15;100.00;97593.78;1710642;75;678552;-70
2023/06/08 01:55:27;;;;;;;1.00;0.90;;;;;;;15.11;100.00;97596.81;1702116;75;679565;-71
2023/06/08 01:57:58;;;;;;;1.20;1.10;;;;;;;15.06;100.00;97603.09;1710739;75;683441;-75
2023/06/08 02:00:29;;;;;;;1.10;1.00;;;;;;;15.02;100.00;97591.56;1701590;75;713033;-71
2023/06/08 02:02:59;;;;;;;1.80;1.30;;;;;;;14.95;100.00;97592.09;1709651;75;780336;-68
2023/06/08 02:05:29;;;;;;;1.10;1.00;;;;;;;15.01;100.00;97592.81;1701285;75;710606;-73
2023/06/08 02:07:59;;;;;;;1.20;1.00;;;;;;;14.96;100.00;97588.06;1709652;75;686217;-69
2023/06/08 02:10:32;;;;;;;1.10;1.00;;;;;;;14.94;100.00;97596.13;1699163;75;924960;-70
2023/06/08 02:13:02;;;;;;;1.30;1.20;;;;;;;14.94;100.00;97588.59;1710021;75;674885;-70
2023/06/08 02:15:33;;;;;;;1.20;1.00;;;;;;;14.84;100.00;97582.63;1701345;75;706877;-72
2023/06/08 02:18:03;;;;;;;1.15;1.05;;;;;;;14.79;100.00;97583.41;1709877;75;681632;-71
2023/06/08 02:20:33;;;;;;;1.10;0.95;;;;;;;14.83;100.00;97578.34;1699013;75;948944;-70
2023/06/08 02:23:04;;;;;;;1.30;1.20;;;;;;;14.77;100.00;97587.88;1709810;75;675865;-74
2023/06/08 02:25:37;;;;;;;1.60;1.20;;;;;;;14.74;100.00;97589.66;1701244;75;751143;-73
2023/06/08 02:28:08;;;;;;;1.10;1.00;;;;;;;14.70;100.00;97594.69;1709038;75;784805;-75
2023/06/08 02:30:38;;;;;;;1.10;1.00;;;;;;;14.73;100.00;97588.16;1698853;75;993813;-70
2023/06/08 02:33:12;;;;;;;1.20;1.10;;;;;;;14.70;100.00;97592.69;1710829;75;674976;-72
2023/06/08 02:35:42;;;;;;;1.10;1.00;;;;;;;14.65;100.00;97593.44;1701591;75;679004;-70
2023/06/08 02:38:13;;;;;;;1.00;0.90;;;;;;;14.64;100.00;97596.69;1710367;75;679557;-70
2023/06/08 02:40:46;;;;;;;0.95;0.90;;;;;;;14.58;100.00;97595.97;1702363;75;683980;-72
2023/06/08 02:43:19;;;;;;;1.35;1.25;;;;;;;14.45;100.00;97588.19;1695388;75;1954321;-70
2023/06/08 02:45:49;;;;;;;1.40;1.30;;;;;;;14.46;100.00;97584.94;1700380;75;744445;-69
2023/06/08 02:48:19;;;;;;;1.20;1.10;;;;;;;14.48;100.00;97584.44;1696928;75;1793553;-70
2023/06/08 02:50:50;;;;;;;1.30;1.10;;;;;;;14.41;100.00;97576.69;1701501;75;759059;-73
2023/06/08 02:53:22;;;;;;;1.20;1.10;;;;;;;14.48;100.00;97584.44;1709269;75;772154;-70
2023/06/08 02:55:55;;;;;;;1.50;0.95;;;;;;;14.43;100.00;97579.69;1700335;75;748659;-73
2023/06/08 02:58:26;;;;;;;1.10;1.00;;;;;;;14.36;100.00;97580.19;1709969;75;680144;-70
2023/06/08 03:01:00;;;;;;;1.20;1.10;;;;;;;14.33;100.00;97578.44;1700940;75;768388;-70
2023/06/08 03:03:30;;;;;;;1.70;1.50;;;;;;;14.32;100.00;97574.94;1707402;75;904061;-70
2023/06/08 03:06:01;;;;;;;1.50;1.40;;;;;;;14.29;100.00;97578.72;1700353;75;740590;-71
2023/06/08 03:08:32;;;;;;;1.60;1.50;;;;;;;14.31;100.00;97581.72;1709955;75;672175;-73
2023/06/08 03:11:04;;;;;;;1.60;1.50;;;;;;;14.33;100.00;97570.94;1698039;75;960048;-74
2023/06/08 03:13:35;;;;;;;3.50;1.70;;;;;;;14.19;100.00;97580.97;1710592;75;688439;-71
2023/06/08 03:16:05;;;;;;;2.80;2.50;;;;;;;14.07;100.00;97580.25;1697812;75;968427;-71
2023/06/08 03:18:35;;;;;;;3.05;2.15;;;;;;;14.24;100.00;97580.22;1710159;75;674328;-72
2023/06/08 03:21:07;;;;;;;2.05;1.85;;;;;;;14.31;100.00;97583.72;1701920;75;756486;-74
2023/06/08 03:23:38;;;;;;;1.80;1.70;;;;;;;14.36;100.00;97583.72;1711218;75;685771;-73
2023/06/08 03:26:10;;;;;;;1.40;1.30;;;;;;;14.34;100.00;97583.47;1701392;75;746458;-72
2023/06/08 03:28:40;;;;;;;3.50;1.20;;;;;;;14.36;100.00;97586.47;1686280;75;2714876;-73
2023/06/08 03:31:11;;;;;;;1.10;1.00;;;;;;;14.35;100.00;97587.72;1701014;75;790195;-72
2023/06/08 03:33:41;;;;;;;1.40;1.30;;;;;;;14.39;100.00;97590.97;1707860;75;963189;-71
2023/06/08 03:36:11;;;;;;;1.25;1.05;;;;;;;14.39;100.00;97590.22;1701232;75;744704;-72
2023/06/08 03:38:41;;;;;;;1.10;1.00;;;;;;;14.41;100.00;97595.97;1707837;75;890061;-73
2023/06/08 03:41:15;;;;;;;1.00;0.95;;;;;;;14.34;100.00;97596.50;1701688;75;750995;-73
2023/06/08 03:43:46;;;;;;;1.95;1.75;;;;;;;14.30;100.00;97588.47;1685165;75;2832457;-75
2023/06/08 03:46:16;;;;;;;2.75;1.60;;;;;;;14.37;100.00;97601.72;1701084;75;748323;-72
2023/06/08 03:48:47;;;;;;;2.05;1.60;;;;;;;14.48;100.00;97603.72;1710191;75;679689;-75
2023/06/08 03:51:18;;;;;;;2.15;1.40;;;;;;;14.46;100.00;97609.72;1701784;75;747126;-73
2023/06/08 03:53:49;;;;;;;3.50;1.30;;;;;;;14.52;100.00;97604.22;1710889;75;675746;-71
2023/06/08 03:56:22;;;;;;;1.40;1.30;;;;;;;14.56;100.00;97613.00;1701978;75;742963;-70
2023/06/08 03:58:52;;;;;;;1.60;1.20;;;;;;;14.57;100.00;97620.00;1710297;75;703293;-75
2023/06/08 04:01:23;;;;;;;1.20;1.10;;;;;;;14.66;100.00;97614.22;1700534;75;739681;-74
2023/06/08 04:03:54;;;;;;;1.60;1.50;;;;;;;14.54;100.00;97615.50;1625733;75;7781216;-73
2023/06/08 04:06:31;;;;;;;3.65;2.40;;;;;;;14.48;100.00;97620.25;1701161;75;753302;-72
2023/06/08 04:09:03;;;;;;;2.70;2.30;;;;;;;14.50;100.00;97623.22;1701047;75;800106;-71
2023/06/08 04:11:36;;;;;;;3.10;2.40;;;;;;;14.45;100.00;97624.75;1710710;75;674171;-77
2023/06/08 04:14:06;;;;;;;2.40;2.20;;;;;;;14.62;100.00;97624.00;1702713;75;729068;-74
2023/06/08 04:16:36;;;;;;;2.30;1.90;;;;;;;14.59;100.00;97628.50;1708660;75;669431;-71
2023/06/08 04:19:09;;;;;;;2.90;2.50;;;;;;;14.48;100.00;97636.78;1701906;75;682528;-72
2023/06/08 04:21:39;;;;;;;2.65;2.30;;;;;;;14.66;100.00;97627.25;1710828;75;677340;-72
2023/06/08 04:24:10;;;;;;;2.50;2.10;;;;;;;14.81;100.00;97629.72;1701719;75;788611;-70
2023/06/08 04:26:43;;;;;;;1.90;1.70;;;;;;;14.77;100.00;97632.75;1710846;75;676065;-69
2023/06/08 04:29:14;;;;;;;2.45;2.25;;;;;;;14.69;100.00;97637.25;1618994;75;7795381;-73
2023/06/08 04:31:48;;;;;;;2.70;2.45;;;;;;;14.78;100.00;97639.75;1710587;75;765437;-69
2023/06/08 04:34:18;;;;;;;1.60;1.50;;;;;;;14.89;100.00;97639.72;1702374;75;696250;-69
2023/06/08 04:36:48;;;;;;;1.60;1.50;;;;;;;14.95;100.00;97641.72;1709516;75;703006;-70
2023/06/08 04:39:18;;;;;;;1.70;1.60;;;;;;;15.00;100.00;97646.47;1699633;75;906421;-68
2023/06/08 04:41:53;;;;;;;1.40;1.30;;;;;;;15.15;100.00;97651.66;1710131;75;680553;-73
2023/06/08 04:44:23;;;;;;;1.40;1.30;;;;;;;15.23;100.00;97639.63;1701932;75;681614;-69
2023/06/08 04:46:56;;;;;;;1.10;1.00;;;;;;;15.34;100.00;97639.56;1707006;75;883834;-71
2023/06/08 04:49:31;;;;;;;1.70;1.60;;;;;;;15.37;100.00;97645.31;1698830;75;850387;-70
2023/06/08 04:52:01;;;;;;;1.40;1.30;;;;;;;15.46;100.00;97645.78;1709048;75;677731;-69
2023/06/08 04:54:34;;;;;;;2.10;1.90;;;;;;;15.42;100.00;97650.81;1700671;75;752010;-70
2023/06/08 04:57:10;;;;;;;2.75;2.20;;;;;;;15.37;100.00;97648.84;1696151;75;1817098;-71
2023/06/08 04:59:41;;;;;;;2.70;2.30;;;;;;;15.38;100.00;97655.84;1699415;75;809364;-69
2023/06/08 05:02:11;;;;;;;2.15;1.90;;;;;;;15.60;100.00;97654.97;1709645;75;689856;-69
2023/06/08 05:04:41;;;;;;;1.75;1.55;;;;;;;15.64;100.00;97660.25;1700099;75;797517;-71
2023/06/08 05:07:11;;;;;;;2.90;1.40;;;;;;;15.80;100.00;97659.41;1709443;75;673373;-71
2023/06/08 05:09:42;;;;;;;2.30;2.10;;;;;;;15.68;100.00;97660.72;1700560;75;747231;-72
2023/06/08 05:12:16;;;;;;;2.10;1.90;;;;;;;15.86;100.00;97668.41;1698306;75;1711835;-76
2023/06/08 05:14:46;;;;;;;1.90;1.80;;;;;;;15.91;100.00;97659.34;1696104;75;950853;-73
2023/06/08 05:17:19;;;;;;;1.90;1.70;;;;;;;15.98;100.00;97669.09;1708386;75;717379;-69
2023/06/08 05:19:49;;;;;;;1.80;1.70;;;;;;;16.10;100.00;97661.50;1699590;75;740273;-70
2023/06/08 05:22:20;;;;;;;2.50;2.30;;;;;;;16.11;100.00;97660.97;1707754;75;833041;-70
2023/06/08 05:24:50;;;;;;;1.80;1.70;;;;;;;16.34;100.00;97658.03;1701286;75;739429;-74
2023/06/08 05:27:23;;;;;;;3.45;2.00;;;;;;;16.31;100.00;97659.09;1709771;75;672481;-73
2023/06/08 05:29:53;;;;;;;1.95;1.80;;;;;;;16.54;100.00;97674.19;1687830;75;1810962;-71
2023/06/08 05:32:24;;;;;;;2.20;2.00;;;;;;;16.19;100.00;97661.91;1710227;75;673128;-71
2023/06/08 05:34:54;;;;;;;3.60;3.30;;;;;;;16.22;100.00;97665.66;1700746;75;748887;-72
2023/06/08 05:37:24;;;;;;;4.00;3.40;;;;;;;16.21;100.00;97668.94;1710091;75;671739;-73
2023/06/08 05:39:55;;;;;;;4.50;4.10;;;;;;;16.09;100.00;97671.78;1701706;75;743917;-71
2023/06/08 05:42:28;;;;;;;3.90;3.50;;;;;;;16.48;100.00;97665.22;1710412;75;689548;-69
2023/06/08 05:44:58;;;;;;;3.55;2.80;;;;;;;16.74;100.00;97669.47;1700945;75;744514;-72
2023/06/08 05:47:29;;;;;;;2.70;2.50;;;;;;;17.02;100.00;97663.69;1708374;75;673787;-72
2023/06/08 05:49:59;;;;;;;2.15;1.95;;;;;;;17.18;100.00;97662.78;1674813;75;2848270;-71
2023/06/08 05:52:29;;;;;;;4.45;4.05;;;;;;;17.21;100.00;97667.25;1709128;75;735507;-73
2023/06/08 05:55:00;;;;;;;4.15;3.75;;;;;;;17.10;100.00;97670.16;1701248;75;748528;-71
2023/06/08 05:57:33;;;;;;;5.50;4.90;;;;;;;17.25;100.00;97669.75;1709620;75;673983;-69
2023/06/08 06:00:09;;;;;;;4.45;4.05;;;;;;;17.06;100.00;97666.19;1701024;75;739091;-73
2023/06/08 06:02:39;;;;;;;4.25;3.85;;;;;;;16.94;100.00;97666.31;1700126;75;838547;-71
2023/06/08 06:05:12;;;;;;;3.40;3.10;;;;;;;17.38;100.00;97667.06;1709580;75;741686;-71
2023/06/08 06:07:42;;;;;;;3.40;3.00;;;;;;;17.61;100.00;97664.75;1700370;75;715324;-72
2023/06/08 06:10:14;;;;;;;3.95;3.55;;;;;;;17.56;100.00;97662.06;1708527;75;683832;-71
2023/06/08 06:12:47;;;;;;;3.20;2.90;;;;;;;17.73;100.00;97659.81;1675910;75;2873250;-71
2023/06/08 06:15:18;;;;;;;3.20;2.90;;;;;;;17.67;100.00;97659.13;1695098;75;1893135;-75
2023/06/08 06:17:48;;;;;;;3.50;3.20;;;;;;;17.91;100.00;97652.78;1699612;75;821867;-68
2023/06/08 06:20:19;;;;;;;3.90;3.45;;;;;;;17.92;100.00;97648.75;1709783;75;670440;-70
2023/06/08 06:22:49;;;;;;;3.80;3.40;;;;;;;18.02;100.00;97655.41;1701330;75;693865;-69
2023/06/08 06:25:21;;;;;;;2.90;2.50;;;;;;;18.26;100.00;97653.78;1709993;75;677213;-71
2023/06/08 06:27:54;;;;;;;2.70;2.40;;;;;;;18.48;100.00;97647.13;1701196;75;691385;-73
2023/06/08 06:30:25;;;;;;;3.60;3.30;;;;;;;17.97;100.00;97644.41;1636065;75;6877244;-71
2023/06/08 06:32:55;;;;;;;3.60;3.30;;;;;;;18.42;100.00;97647.19;1701722;75;676397;-71
2023/06/08 06:35:26;;;;;;;6.45;4.20;;;;;;;18.38;100.00;97644.00;1705991;75;983613;-73
2023/06/08 06:37:56;;;;;;;3.70;3.40;;;;;;;18.66;100.00;97651.81;1701903;75;676315;-69
2023/06/08 06:40:27;;;;;;;4.25;2.80;;;;;;;18.82;100.00;97657.66;1709860;75;668710;-71
2023/06/08 06:43:00;;;;;;;2.60;2.40;;;;;;;19.22;100.00;97654.84;1702120;75;672527;-74
2023/06/08 06:45:30;;;;;;;3.10;2.80;;;;;;;18.96;100.00;97653.59;1709537;75;673682;-72
2023/06/08 06:48:00;;;;;;;3.40;3.10;;;;;;;19.04;100.00;97651.66;1701548;75;679928;-70
2023/06/08 06:50:33;;;;;;;4.65;3.80;;;;;;;19.15;100.00;97650.72;1708998;75;685379;-69
2023/06/08 06:53:03;;;;;;;4.50;3.20;;;;;;;19.26;100.00;97652.50;1702319;75;695705;-74
2023/06/08 06:55:34;;;;;;;3.30;2.80;;;;;;;19.59;100.00;97651.06;1710071;75;674612;-72
2023/06/08 06:58:08;;;;;;;2.45;2.15;;;;;;;19.59;100.00;97651.81;1701539;75;733922;-69
2023/06/08 07:00:39;;;;;;;3.20;2.90;;;;;;;19.40;100.00;97653.25;1710638;75;692513;-72
2023/06/08 07:03:11;;;;;;;3.20;2.75;;;;;;;19.53;100.00;97642.88;1701577;75;750377;-71
2023/06/08 07:05:41;;;;;;;2.70;2.50;;;;;;;19.57;100.00;97648.09;1710444;75;676726;-70
2023/06/08 07:08:11;;;;;;;3.00;2.70;;;;;;;19.72;100.00;97647.53;1701407;75;755192;-73
2023/06/08 07:10:42;;;;;;;2.60;2.40;;;;;;;19.88;100.00;97651.25;1708279;75;886532;-70
2023/06/08 07:13:14;;;;;;;2.90;2.20;;;;;;;19.95;100.00;97647.78;1699045;75;919785;-72
2023/06/08 07:15:45;;;;;;;2.20;2.00;;;;;;;20.00;100.00;97652.47;1710265;75;671783;-70
2023/06/08 07:18:16;;;;;;;2.30;1.90;;;;;;;20.14;100.00;97640.00;1677227;75;2727419;-74
2023/06/08 07:20:46;;;;;;;3.55;3.25;;;;;;;20.05;100.00;97645.28;1697024;75;1846769;-71
2023/06/08 07:23:17;;;;;;;3.60;3.00;;;;;;;19.97;100.00;97642.44;1701554;75;733536;-72
2023/06/08 07:25:47;;;;;;;4.90;3.80;;;;;;;19.96;100.00;97647.25;1710192;75;670300;-70
2023/06/08 07:28:20;;;;;;;4.10;3.40;;;;;;;19.44;100.00;97637.75;1701251;75;748956;-71
2023/06/08 07:30:50;;;;;;;5.10;3.50;;;;;;;19.68;100.00;97644.38;1709834;75;732293;-72
2023/06/08 07:33:21;;;;;;;3.35;2.95;;;;;;;19.83;100.00;97650.06;1702250;75;743388;-74
2023/06/08 07:35:51;;;;;;;3.15;2.65;;;;;;;20.09;100.00;97635.34;1707389;75;900574;-72
2023/06/08 07:38:22;;;;;;;5.10;3.30;;;;;;;19.79;100.00;97635.75;1698407;75;963539;-73
2023/06/08 07:40:53;;;;;;;3.40;3.10;;;;;;;19.92;100.00;97635.72;1710913;75;669915;-70
2023/06/08 07:43:26;;;;;;;3.35;2.90;;;;;;;19.74;100.00;97634.59;1701337;75;817009;-72
2023/06/08 07:45:56;;;;;;;4.10;2.80;;;;;;;19.78;100.00;97629.47;1709975;75;685396;-72
2023/06/08 07:48:26;;;;;;;5.60;3.50;;;;;;;19.68;100.00;97636.03;1686360;75;1980726;-72
2023/06/08 07:50:56;;;;;;;3.60;3.30;;;;;;;20.13;100.00;97627.41;1707961;75;922765;-71
2023/06/08 07:53:28;;;;;;;3.75;3.35;;;;;;;19.98;100.00;97630.03;1677418;75;2792638;-71
2023/06/08 07:55:58;;;;;;;3.35;3.05;;;;;;;20.06;100.00;97630.09;1710179;75;682522;-74
2023/06/08 07:58:31;;;;;;;3.60;3.30;;;;;;;20.22;100.00;97629.69;1702464;75;741611;-72
2023/06/08 08:01:01;;;;;;;3.70;3.30;;;;;;;20.44;100.00;97627.66;1707968;75;916654;-70
2023/06/08 08:03:32;;;;;;;3.70;3.35;;;;;;;20.31;100.00;97634.03;1702404;75;731558;-69
2023/06/08 08:06:02;;;;;;;3.65;2.80;;;;;;;20.28;100.00;97628.84;1708200;75;871753;-70
2023/06/08 08:08:32;;;;;;;3.45;3.15;;;;;;;20.61;100.00;97635.59;1700192;75;846200;-69
2023/06/08 08:11:02;;;;;;;3.45;3.15;;;;;;;20.40;100.00;97638.41;1708791;75;848051;-73
2023/06/08 08:13:35;;;;;;;3.95;3.20;;;;;;;20.71;100.00;97636.63;1701736;75;736185;-71
2023/06/08 08:16:06;;;;;;;3.60;3.30;;;;;;;20.62;100.00;97635.06;1709684;75;674081;-72
2023/06/08 08:18:37;;;;;;;3.60;3.30;;;;;;;20.74;100.00;97634.78;1701667;75;744690;-72
2023/06/08 08:21:07;;;;;;;4.20;3.30;;;;;;;20.76;100.00;97630.16;1710033;75;670543;-71
2023/06/08 08:23:41;;;;;;;4.05;3.30;;;;;;;20.86;100.00;97622.06;1700839;75;768774;-69
2023/06/08 08:26:11;;;;;;;3.80;3.50;;;;;;;20.61;100.00;97622.47;1706028;75;985314;-73
2023/06/08 08:28:44;;;;;;;3.90;3.10;;;;;;;21.06;100.00;97626.06;1701489;75;742577;-71
2023/06/08 08:31:15;;;;;;;8.45;7.55;;;;;;;21.34;100.00;97622.50;1709856;75;684191;-74
2023/06/08 08:33:47;;;;;;;5.80;5.20;;;;;;;21.44;100.00;97617.91;1700559;75;767918;-72
2023/06/08 08:36:17;;;;;;;4.00;3.40;;;;;;;21.56;100.00;97621.09;1709789;75;676364;-73
2023/06/08 08:38:47;;;;;;;3.75;3.10;;;;;;;21.40;100.00;97620.28;1700154;75;830873;-71
2023/06/08 08:41:23;;;;;;;3.10;2.80;;;;;;;21.86;100.00;97622.47;1707734;75;882033;-73
2023/06/08 08:44:01;;;;;;;3.05;2.75;;;;;;;21.85;100.00;97615.44;1701561;75;720097;-70
2023/06/08 08:46:37;;;;;;;;;;;;;;;21.81;100.00;97617.81;1702117;75;684758;-70
2023/06/08 08:49:16;;;;;;;3.15;2.90;;;;;;;21.73;100.00;97615.03;1710939;75;674287;-70
2023/06/08 08:51:52;;;;;;;5.40;4.00;;;;;;;21.46;100.00;97615.31;1702057;75;672918;-75
2023/06/08 08:54:31;;;;;;;4.70;3.30;;;;;;;21.58;100.00;97615.00;1710455;75;675953;-73
2023/06/08 08:57:02;;;;;;;3.10;2.60;;;;;;;22.03;100.00;97613.59;1687096;75;1871102;-72
2023/06/08 08:59:35;;;;;;;3.60;3.30;;;;;;;21.69;100.00;97611.84;1709217;75;749693;-73
2023/06/08 09:02:07;;;;;;;3.30;2.85;;;;;;;22.03;100.00;97605.22;1700833;75;750437;-73
2023/06/08 09:04:37;;;;;;;3.80;3.00;;;;;;;21.96;100.00;97608.75;1710178;75;695259;-74
2023/06/08 09:07:08;;;;;;;3.20;2.90;;;;;;;21.94;100.00;97600.22;1701112;75;739724;-70
2023/06/08 09:09:41;;;;;;;2.80;2.60;;;;;;;21.78;97.54;97607.78;1710201;75;681321;-71
2023/06/08 09:12:13;;;;;;;3.45;3.15;;;;;;;21.63;100.00;97605.72;1701112;75;747241;-73
2023/06/08 09:15:00;;;;;;;4.85;4.35;;;;;;;21.77;100.00;97604.28;1710573;75;677614;-72
2023/06/08 09:17:37;;;;;;;3.40;3.10;;;;;;;21.87;99.59;97596.13;1701263;75;767786;-74
2023/06/08 09:20:10;;;;;;;3.10;2.80;;;;;;;22.19;88.80;97606.00;1702374;75;689331;-73
2023/06/08 09:22:43;;;;;;;2.90;2.50;;;;;;;22.36;87.67;97600.63;1710535;75;675119;-71
2023/06/08 09:25:13;;;;;;;3.00;2.70;;;;;;;22.39;86.44;97599.50;1630833;75;6736647;-71
2023/06/08 09:27:43;;;;;;;3.30;3.00;;;;;;;22.15;88.65;97603.56;1709922;75;676241;-71
2023/06/08 09:30:28;;;;;;;2.60;2.40;;;;;;;22.51;83.75;97597.84;1702232;75;697396;-73
2023/06/08 09:32:59;;;;;;;3.10;2.80;;;;;;;22.62;85.92;97590.38;1695490;75;1965248;-73
2023/06/08 09:35:29;;;;;;;3.30;2.95;;;;;;;22.45;85.27;97594.50;1702192;75;678634;-69
2023/06/08 09:38:08;;;;;;;3.50;3.10;;;;;;;22.05;87.40;97589.44;1706289;75;998343;-72
2023/06/08 09:40:38;;;;;;;4.10;3.20;;;;;;;22.08;85.77;97582.75;1699465;75;828424;-71
2023/06/08 09:43:08;;;;;;;3.30;3.00;;;;;;;22.49;87.94;97575.34;1708303;75;858367;-75
2023/06/08 09:45:47;;;;;;;3.20;2.90;;;;;;;22.33;89.20;97571.06;1700972;75;743694;-71
2023/06/08 09:48:17;;;;;;;5.20;2.90;;;;;;;22.15;85.40;97570.09;1702555;75;674775;-72
2023/06/08 09:50:47;;;;;;;2.90;2.70;;;;;;;22.18;84.84;97559.91;1707926;75;906562;-72
2023/06/08 09:53:19;;;;;;;2.50;2.30;;;;;;;22.40;83.79;97559.16;1701179;75;729106;-74
2023/06/08 09:55:50;;;;;;;3.60;2.50;;;;;;;22.59;86.66;97561.56;1709470;75;695201;-73
2023/06/08 09:58:21;;;;;;;2.95;2.65;;;;;;;22.69;83.17;97550.56;1701697;75;679529;-72
2023/06/08 10:00:54;;;;;;;4.00;2.75;;;;;;;22.74;85.55;97553.16;1708907;75;780123;-74
2023/06/08 10:03:33;;;;;;;3.30;3.00;;;;;;;22.84;81.35;97558.16;1702030;75;693568;-69
2023/06/08 10:06:04;;;;;;;2.80;2.50;;;;;;;22.97;81.91;97558.66;1709631;75;675577;-69
2023/06/08 10:08:35;;;;;;;2.55;2.35;;;;;;;23.29;78.69;97546.09;1699180;75;924310;-71
2023/06/08 10:11:10;;;;;;;2.90;2.60;;;;;;;23.60;79.14;97551.50;1706798;75;966071;-68
2023/06/08 10:13:41;;;;;;;4.50;4.10;;;;;;;23.66;74.67;97545.69;1701244;75;741861;-71
2023/06/08 10:16:14;;;;;;;3.65;3.30;;;;;;;23.50;75.10;97545.03;1709741;75;672082;-72
2023/06/08 10:18:47;;;;;;;2.70;2.50;;;;;;;23.40;75.04;97542.09;1698732;75;870309;-69
2023/06/08 10:21:17;;;;;;;3.20;2.40;;;;;;;23.72;68.77;97537.84;1709607;75;684667;-71
2023/06/08 10:23:48;;;;;;;2.60;2.40;;;;;;;23.83;67.22;97533.88;1698033;75;980830;-71
2023/06/08 10:26:18;;;;;;;3.90;2.25;;;;;;;23.50;63.92;97543.00;1709312;75;682825;-75
2023/06/08 10:29:13;;;;;;;2.80;2.20;;;;;;;23.82;66.47;97538.72;1700807;75;745276;-74
2023/06/08 10:31:50;;;;;;;3.15;2.20;;;;;;;23.80;63.93;97532.97;1701789;75;676943;-71
2023/06/08 10:34:20;;;;;;;2.30;2.10;;;;;;;23.75;65.38;97529.06;1710204;75;676014;-70
2023/06/08 10:36:51;;;;;;;2.75;2.20;;;;;;;23.72;65.42;97524.59;1700607;75;722673;-73
2023/06/08 10:39:21;;;;;;;3.45;2.35;;;;;;;24.07;65.91;97516.34;1709162;75;673301;-72
2023/06/08 10:41:59;;;;;;;4.30;2.85;;;;;;;23.88;63.64;97516.84;1688924;75;1695935;-72
2023/06/08 10:44:32;;;;;;;1.80;1.70;;;;;;;24.08;63.48;97503.13;1701883;75;678912;-73
2023/06/08 10:47:08;;;;;;;1.80;1.70;;;;;;;24.20;63.51;97498.53;1709431;75;673550;-71
2023/06/08 10:49:40;;;;;;;2.30;1.80;;;;;;;24.68;63.80;97501.06;1702106;75;676576;-75
2023/06/08 10:52:13;;;;;;;2.85;2.00;;;;;;;24.05;65.74;97499.38;1706999;75;962302;-72
2023/06/08 10:54:58;;;;;;;2.45;2.25;;;;;;;24.03;65.59;97490.84;1700322;67;854170;-73
2023/06/08 10:57:46;;;;;;;3.60;2.00;;;;;;;24.21;65.48;97483.22;1701548;75;684522;-70
2023/06/08 11:00:42;;;;;;;2.50;1.90;;;;;;;24.19;65.56;97477.44;1709769;75;675771;-72
2023/06/08 11:03:17;;;;;;;2.80;1.70;;;;;;;24.66;67.89;97476.44;1698798;75;870778;-72
2023/06/08 11:05:53;;;;;;;2.35;1.95;;;;;;;24.56;63.02;97469.28;1693537;75;1831467;-73
2023/06/08 11:08:24;;;;;;;2.75;2.25;;;;;;;24.58;60.79;97472.97;1708278;75;813116;-74
2023/06/08 11:10:58;;;;;;;2.30;2.10;;;;;;;24.55;60.94;97465.72;1686411;75;1939341;-69
2023/06/08 11:13:28;;;;;;;11.35;10.25;;;;;;;24.42;57.59;97457.66;1709599;75;682178;-72
2023/06/08 11:16:00;;;;;;;4.60;4.00;;;;;;;25.05;59.25;97456.34;1695461;75;955474;-69
2023/06/08 11:18:34;;;;;;;2.10;1.90;;;;;;;24.73;59.93;97455.25;1709326;75;681539;-70
2023/06/08 11:21:04;;;;;;;2.30;2.10;;;;;;;24.85;61.51;97455.50;1700279;75;701057;-71
2023/06/08 11:23:37;;;;;;;2.35;1.95;;;;;;;24.66;64.27;97451.22;1710066;75;676702;-71
2023/06/08 11:26:08;;;;;;;3.10;2.70;;;;;;;24.64;62.54;97444.72;1701383;75;691315;-70
2023/06/08 11:28:38;;;;;;;4.30;3.70;;;;;;;24.72;61.36;97439.78;1708971;75;683652;-69
2023/06/08 11:31:13;;;;;;;5.50;4.30;;;;;;;24.31;60.98;97441.34;1700511;75;697343;-69
2023/06/08 11:33:51;;;;;;;2.70;2.20;;;;;;;24.74;61.49;97436.41;1695778;75;1866725;-72
2023/06/08 11:36:22;;;;;;;2.15;1.95;;;;;;;24.44;57.80;97438.22;1700520;75;758876;-71
2023/06/08 11:38:53;;;;;;;3.00;2.00;;;;;;;24.69;60.12;97432.53;1707246;75;915322;-72
2023/06/08 11:41:25;;;;;;;2.10;1.90;;;;;;;24.97;61.90;97433.31;1697359;75;963178;-72
2023/06/08 11:43:58;;;;;;;2.30;2.10;;;;;;;25.12;60.00;97435.91;1710000;75;688031;-69